Latest Weather Observations for Mandurah

IDW60801

Issued at 8:05 am WST Tuesday 29 July 2014 (issued every 30 minutes, with the page automatically refreshed every 10 minutes)

About weather observations | Map of weather stations | Latest weather observations for WA | Other Formats
Station Details ID: 009977 Name: MANDURAH Lat: -32.52 Lon: 115.71 Height: 3.0 m
Data from the previous 72 hours. | See also: Recent months at Mandurah
Date/Time
WST
Temp
°C
App
Temp
°C
Dew
Point
Rel
Hum
%
Delta-T
°C
Wind Press
QNH
hPa
Press
MSL
hPa
Rain
since 9 am
mm
Dir
 
Spd
km/h
Gust
km/h
Spd
kts
Gust
kts
29/08:00am 16.6 13.4 10.0 65 3.5 W 17 26 9 14 1023.0 1023.0 3.6
29/07:30am 16.3 12.6 9.5 64 3.5 W 19 26 10 14 1022.5 - 3.6
29/07:00am 16.2 12.9 9.4 64 3.5 W 17 26 9 14 1022.2 1022.2 3.6
29/06:30am 15.9 13.6 10.4 70 2.9 WSW 13 20 7 11 1022.1 - 3.6
29/06:00am 16.1 14.0 11.1 72 2.7 WSW 13 19 7 10 1021.9 1021.9 3.6
29/05:30am 16.0 13.8 10.7 71 2.8 W 13 19 7 10 1021.8 - 3.6
29/05:00am 16.5 12.1 10.4 67 3.2 W 24 33 13 18 1021.6 1021.6 3.6
29/04:30am 16.5 13.8 11.6 73 2.7 W 17 26 9 14 1021.7 - 3.6
29/04:00am 16.6 13.7 12.4 76 2.3 W 19 24 10 13 1021.7 1021.7 3.6
29/03:30am 16.3 13.7 11.9 75 2.4 W 17 24 9 13 1021.7 - 3.6
29/03:00am 16.4 13.6 11.3 72 2.7 W 17 24 9 13 1021.7 1021.7 3.6
29/02:30am 16.5 13.3 11.9 74 2.5 W 20 30 11 16 1021.8 - 3.6
29/02:00am 16.6 12.6 11.7 73 2.7 W 24 30 13 16 1021.8 1021.8 3.6
29/01:30am 15.4 13.9 14.3 93 0.6 WSW 15 20 8 11 1022.0 - 3.6
29/01:00am 15.0 13.9 14.4 96 0.3 WSW 13 22 7 12 1022.2 1022.2 3.6
29/12:30am 15.1 13.8 14.8 98 0.2 SW 15 22 8 12 1022.4 - 3.4
29/12:00am 15.0 14.0 14.7 98 0.2 WSW 13 19 7 10 1022.6 1022.6 3.4
 
Date/Time
WST
Temp
°C
App
Temp
°C
Dew
Point
Rel
Hum
%
Delta-T
°C
Wind Press
QNH
hPa
Press
MSL
hPa
Rain
since 9 am
mm
Dir
 
Spd
km/h
Gust
km/h
Spd
kts
Gust
kts
28/11:30pm 15.5 13.7 14.4 93 0.6 W 17 26 9 14 1022.6 - 3.4
28/11:00pm 15.5 13.5 14.0 91 0.8 W 17 26 9 14 1022.6 1022.6 3.4
28/10:30pm 15.6 12.9 13.6 88 1.1 W 20 30 11 16 1022.6 - 3.4
28/10:00pm 15.8 12.3 13.5 86 1.3 W 24 30 13 16 1022.7 1022.7 3.4
28/09:30pm 15.5 13.6 15.3 99 0.1 W 19 26 10 14 1023.0 - 3.2
28/09:00pm 15.8 12.1 14.0 89 1.0 W 26 39 14 21 1022.9 1022.9 2.2
28/08:30pm 15.9 14.1 13.2 84 1.5 WSW 15 26 8 14 1022.8 - 2.0
28/08:00pm 16.2 13.8 12.7 80 1.9 W 17 24 9 13 1022.7 1022.7 2.0
28/07:30pm 15.9 12.8 13.4 85 1.4 W 22 30 12 16 1022.7 - 2.0
28/07:00pm 15.2 14.2 13.4 89 1.0 SW 11 19 6 10 1022.6 1022.6 2.0
28/06:30pm 15.8 13.9 14.2 90 0.9 WNW 17 22 9 12 1022.4 - 2.0
28/06:00pm 15.3 11.9 14.7 96 0.3 WNW 26 32 14 17 1022.3 1022.3 2.0
28/05:30pm 14.7 13.0 14.7 100 0.0 WNW 17 22 9 12 1022.0 - 2.0
28/05:00pm 15.2 11.1 15.0 99 0.1 WNW 30 37 16 20 1021.8 1021.8 1.8
28/04:30pm 15.0 13.3 14.8 99 0.1 WNW 17 24 9 13 1021.8 - 1.6
28/04:00pm 15.6 10.7 13.6 88 1.1 W 32 44 17 24 1021.6 1021.6 0.2
28/03:30pm 15.8 12.0 13.6 87 1.2 WNW 26 37 14 20 1021.3 - 0.2
28/03:00pm 16.3 13.9 12.8 80 1.9 WNW 17 22 9 12 1021.1 1021.1 0.0
28/02:30pm 16.0 12.1 13.3 84 1.5 W 26 37 14 20 1021.3 - 0.0
28/02:00pm 16.2 12.0 12.4 78 2.1 W 26 39 14 21 1021.5 1021.5 0.0
28/01:30pm 17.9 14.4 12.1 69 3.2 WNW 22 30 12 16 1021.6 - 0.0
28/01:00pm 17.0 15.1 11.7 71 2.9 WNW 13 19 7 10 1021.9 1021.9 0.0
28/12:30pm 17.4 14.2 11.9 70 3.0 W 20 37 11 20 1022.4 - 0.0
28/12:00pm 18.5 15.6 11.1 62 4.0 W 17 22 9 12 1022.6 1022.6 0.0
28/11:30am 18.1 14.7 11.2 64 3.7 W 20 30 11 16 1022.8 - 0.0
28/11:00am 17.6 14.8 11.4 67 3.4 W 17 24 9 13 1022.8 1022.8 0.0
28/10:30am 16.6 14.9 12.6 77 2.2 WSW 13 19 7 10 1022.9 - 0.0
28/10:00am 17.1 14.1 10.7 66 3.4 W 17 24 9 13 1022.8 1022.8 0.0
28/09:30am 16.2 11.9 10.9 71 2.8 W 24 39 13 21 1022.8 - 0.0
28/09:00am 16.5 13.4 12.1 75 2.4 WSW 20 33 11 18 1022.4 1022.4 0.4
28/08:30am 16.6 13.0 10.7 68 3.1 W 20 30 11 16 1022.0 - 0.4
28/08:00am 16.3 13.0 10.8 70 2.9 W 19 28 10 15 1021.7 1021.7 0.4
28/07:30am 15.8 12.9 11.0 73 2.6 W 17 28 9 15 1021.4 - 0.4
28/07:00am 15.5 12.8 13.5 88 1.1 NW 20 26 11 14 1021.2 1021.2 0.4
28/06:30am 15.6 10.9 13.3 86 1.3 WNW 30 39 16 21 1021.1 - 0.4
28/06:00am 15.2 9.3 13.6 90 0.9 W 37 44 20 24 1020.9 1020.9 0.4
28/05:59am 15.3 9.4 13.7 90 0.9 W 37 43 20 23 1020.9 - 0.4
28/05:30am 14.8 12.9 13.0 89 1.0 WSW 15 22 8 12 1020.8 - 0.2
28/05:00am 15.2 12.0 11.8 80 1.8 WSW 20 33 11 18 1020.8 1020.8 0.0
28/04:30am 16.1 11.7 10.4 69 3.0 W 24 35 13 19 1020.7 - 0.0
28/04:00am 15.8 11.5 12.0 78 2.1 W 26 35 14 19 1020.9 1020.9 0.0
28/03:30am 15.9 13.1 11.3 74 2.5 W 17 22 9 12 1020.9 - 0.0
28/03:00am 16.4 11.6 10.3 67 3.2 W 26 35 14 19 1021.0 1021.0 0.0
28/02:30am 16.2 12.1 10.1 67 3.2 W 22 33 12 18 1021.1 - 0.0
28/02:00am 16.4 12.3 10.0 66 3.3 W 22 33 12 18 1021.1 1021.1 0.0
28/01:30am 16.4 11.8 9.8 65 3.5 W 24 33 13 18 1021.2 - 0.0
28/01:00am 16.5 11.8 9.4 63 3.7 W 24 33 13 18 1021.2 1021.2 0.0
28/12:30am 16.3 12.5 9.7 65 3.4 W 20 32 11 17 1021.4 - 0.0
28/12:00am 16.0 12.7 11.0 72 2.7 W 19 30 10 16 1021.5 1021.5 0.0
 
Date/Time
WST
Temp
°C
App
Temp
°C
Dew
Point
Rel
Hum
%
Delta-T
°C
Wind Press
QNH
hPa
Press
MSL
hPa
Rain
since 9 am
mm
Dir
 
Spd
km/h
Gust
km/h
Spd
kts
Gust
kts
27/11:30pm 16.3 12.7 10.6 69 3.0 W 20 30 11 16 1021.7 - 0.0
27/11:00pm 16.1 13.8 11.7 75 2.4 W 15 28 8 15 1022.0 1022.0 0.0
27/10:30pm 16.2 12.8 11.4 73 2.6 W 20 30 11 16 1022.0 - 0.0
27/10:00pm 16.6 12.4 11.1 70 2.9 W 24 35 13 19 1022.1 1022.1 0.0
27/09:30pm 16.2 12.8 11.2 72 2.7 W 20 30 11 16 1022.0 - 0.0
27/09:00pm 16.2 12.0 11.2 72 2.7 W 24 35 13 19 1022.0 1022.0 0.0
27/08:30pm 16.4 13.2 11.8 74 2.5 WSW 20 30 11 16 1022.0 - 0.0
27/08:00pm 16.7 12.8 9.6 63 3.7 W 20 32 11 17 1021.9 1021.9 0.0
27/07:30pm 16.5 12.6 9.4 63 3.7 W 20 30 11 16 1021.8 - 0.0
27/07:00pm 16.2 13.0 9.8 66 3.3 W 17 24 9 13 1021.6 1021.6 0.0
27/06:30pm 16.5 13.6 11.0 70 2.9 W 17 30 9 16 1021.3 - 0.0
27/06:00pm 16.5 13.9 10.8 69 3.0 W 15 24 8 13 1020.9 1020.9 0.0
27/05:30pm 16.5 13.3 11.2 71 2.9 W 19 22 10 12 1020.9 - 0.0
27/05:00pm 16.4 13.8 10.7 69 3.0 WSW 15 20 8 11 1020.6 1020.6 0.0
27/04:30pm 16.9 13.4 11.0 68 3.2 WSW 20 32 11 17 1020.6 - 0.0
27/04:00pm 17.1 14.8 13.0 77 2.3 WSW 17 24 9 13 1020.3 1020.3 0.0
27/03:30pm 17.2 14.2 12.7 75 2.5 WSW 20 35 11 19 1020.1 - 0.0
27/03:00pm 18.5 16.1 12.5 68 3.3 WSW 17 22 9 12 1019.8 1019.8 0.0
27/02:30pm 18.6 15.5 12.1 66 3.6 W 20 28 11 15 1019.7 - 0.0
27/02:00pm 18.1 14.8 11.7 66 3.5 W 20 30 11 16 1019.6 1019.6 0.0
27/01:30pm 17.4 14.8 13.1 76 2.4 W 19 24 10 13 1019.8 - 0.0
27/01:00pm 18.1 15.5 11.9 67 3.4 W 17 26 9 14 1020.1 1020.1 0.0
27/12:30pm 17.7 14.9 11.5 67 3.4 W 17 22 9 12 1020.4 - 0.0
27/12:00pm 17.7 15.9 13.2 75 2.5 W 15 32 8 17 1020.9 1020.9 0.0
27/11:30am 17.1 15.0 13.6 80 2.0 W 17 24 9 13 1021.2 - 0.0
27/11:00am 16.0 14.3 12.6 80 1.9 W 13 17 7 9 1021.4 1021.4 0.0
27/10:30am 15.7 10.9 12.8 83 1.6 W 30 39 16 21 1021.7 - 0.0
27/10:00am 16.1 12.5 11.9 76 2.3 WNW 22 26 12 14 1021.3 1021.3 0.0
27/09:30am 17.0 14.2 11.3 69 3.1 W 17 30 9 16 1021.0 - 0.0
27/09:00am 16.1 13.0 12.3 78 2.1 W 20 28 11 15 1020.8 1020.8 5.4
27/08:30am 15.3 10.5 12.8 85 1.4 W 30 39 16 21 1020.6 - 5.4
27/08:25am 15.3 10.3 13.3 88 1.1 W 32 39 17 21 1020.5 - 5.4
27/08:00am 14.6 13.8 14.0 96 0.3 W 11 19 6 10 1020.3 1020.3 5.4
27/07:30am 14.8 11.1 12.8 88 1.1 WSW 24 35 13 19 1020.2 - 5.4
27/07:00am 15.9 10.8 11.9 77 2.2 WNW 30 43 16 23 1019.5 1019.5 5.0
27/06:30am 15.9 11.8 12.8 82 1.7 W 26 44 14 24 1019.2 - 5.0
27/06:00am 16.3 12.5 12.5 78 2.1 WNW 24 37 13 20 1018.8 1018.8 5.0
27/05:49am 15.4 10.1 11.2 76 2.2 W 30 48 16 26 1018.9 - 5.0
27/05:30am 16.7 11.0 11.0 69 3.1 WNW 32 41 17 22 1018.5 - 5.0
27/05:00am 16.4 10.4 10.0 66 3.4 WNW 32 41 17 22 1018.6 1018.6 5.0
27/04:30am 16.4 11.1 10.0 66 3.4 WNW 28 39 15 21 1018.6 - 5.0
27/04:00am 16.3 11.1 9.0 62 3.7 WNW 26 37 14 20 1018.7 1018.7 5.0
27/03:30am 16.1 11.5 9.8 66 3.3 W 24 35 13 19 1018.9 - 5.0
27/03:00am 16.1 12.2 8.8 62 3.7 W 19 30 10 16 1018.9 1018.9 5.0
27/02:30am 16.1 10.8 8.6 61 3.8 W 26 37 14 20 1019.1 - 5.0
27/02:00am 16.2 10.6 8.7 61 3.8 WNW 28 39 15 21 1019.3 1019.3 5.0
27/01:30am 16.1 10.8 8.3 60 4.0 W 26 39 14 21 1019.3 - 5.0
27/01:00am 16.4 10.8 8.6 60 4.0 W 28 37 15 20 1019.3 1019.3 5.0
27/12:30am 16.2 10.5 6.9 54 4.6 W 26 33 14 18 1019.5 - 5.0
27/12:00am 16.2 11.0 7.2 55 4.5 W 24 33 13 18 1019.3 1019.3 5.0
 
Date/Time
WST
Temp
°C
App
Temp
°C
Dew
Point
Rel
Hum
%
Delta-T
°C
Wind Press
QNH
hPa
Press
MSL
hPa
Rain
since 9 am
mm
Dir
 
Spd
km/h
Gust
km/h
Spd
kts
Gust
kts
26/11:30pm 16.2 9.6 7.7 57 4.3 W 32 39 17 21 1019.2 - 5.0
26/11:00pm 16.2 12.0 9.6 65 3.4 WNW 22 32 12 17 1019.2 1019.2 5.0
26/10:30pm 16.2 10.2 7.2 55 4.5 W 28 35 15 19 1019.1 - 5.0
26/10:00pm 16.4 12.3 8.6 60 4.0 W 20 26 11 14 1019.1 1019.1 5.0
26/09:30pm 16.1 12.4 9.3 64 3.5 W 19 24 10 13 1019.0 - 5.0
26/09:00pm 15.5 11.3 9.6 68 3.0 W 22 33 12 18 1018.8 1018.8 5.0
26/08:30pm 15.4 13.1 8.9 65 3.3 WSW 11 20 6 11 1018.8 - 5.0
26/08:00pm 16.0 11.7 8.0 59 4.0 W 20 26 11 14 1018.6 1018.6 5.0
26/07:30pm 15.7 11.6 7.7 59 4.0 W 19 28 10 15 1018.5 - 5.0
26/07:00pm 15.7 12.1 8.2 61 3.8 W 17 24 9 13 1018.2 1018.2 5.0
26/06:30pm 15.5 12.1 7.8 60 3.8 W 15 22 8 12 1017.8 - 5.0
26/06:00pm 15.5 12.2 8.0 61 3.8 W 15 24 8 13 1017.3 1017.3 5.0
26/05:30pm 15.6 12.1 7.4 58 4.1 WSW 15 22 8 12 1017.0 - 5.0
26/05:00pm 16.2 12.7 8.7 61 3.8 WSW 17 26 9 14 1016.9 1016.9 5.0
26/04:30pm 16.4 13.3 10.3 67 3.2 WSW 17 28 9 15 1016.8 - 5.0
26/04:00pm 16.9 13.4 8.6 58 4.2 W 17 28 9 15 1016.5 1016.5 4.8
26/03:30pm 17.2 13.5 9.4 60 4.1 WSW 19 33 10 18 1016.3 - 4.8
26/03:00pm 17.3 13.5 9.7 61 4.0 WSW 20 35 11 19 1015.8 1015.8 4.8
26/02:30pm 16.9 13.0 10.7 67 3.3 WSW 22 33 12 18 1015.4 - 4.8
26/02:00pm 17.3 13.6 11.6 69 3.1 WSW 22 32 12 17 1015.3 1015.3 4.8
26/01:30pm 16.5 13.0 12.3 76 2.3 WSW 22 43 12 23 1015.1 - 4.8
26/01:00pm 15.9 12.4 13.4 85 1.4 WSW 24 35 13 19 1014.9 1014.9 4.8
26/12:30pm 14.8 11.3 14.5 98 0.2 WSW 26 35 14 19 1014.9 - 4.8
26/12:00pm 15.3 12.5 15.3 100 0.0 W 24 39 13 21 1015.0 1015.0 4.4
26/11:30am 15.8 12.6 15.2 96 0.3 W 26 37 14 20 1014.6 - 4.0
26/11:00am 15.4 12.6 15.4 100 0.0 WSW 24 39 13 21 1014.6 1014.6 4.0
26/10:30am 16.1 11.9 16.1 100 0.0 W 33 48 18 26 1014.3 - 3.8
26/10:15am 15.9 11.6 15.9 100 0.0 WSW 33 43 18 23 1014.0 - 3.8
26/10:00am 16.6 11.4 16.6 100 0.0 WNW 39 57 21 31 1014.0 1014.0 3.8
26/09:59am 16.6 11.4 16.6 100 0.0 WNW 39 57 21 31 1014.0 - 3.8
26/09:52am 17.7 11.7 16.9 95 0.5 WNW 44 57 24 31 1013.9 - 1.2
26/09:30am 17.9 13.6 17.9 100 0.0 NW 37 46 20 25 1013.3 - 0.0
26/09:00am 17.1 11.4 17.1 100 0.0 NNW 43 69 23 37 1013.4 1013.4 4.4
26/08:45am 16.9 9.8 16.1 95 0.5 NNW 48 85 26 46 1013.3 - 2.6
26/08:41am 17.9 12.0 16.8 93 0.7 NNW 43 65 23 35 1013.4 - 1.2
26/08:30am 18.1 12.7 15.9 87 1.3 NNW 39 48 21 26 1013.0 - 1.0

Other Formats:

Comma delimited format used in spreadsheet applications
http://www.bom.gov.au/fwo/IDW60801/IDW60801.94605.axf

JavaScript Object Notation format (JSON) in row-major order
http://www.bom.gov.au/fwo/IDW60801/IDW60801.94605.json